createdAt,value
2022-12-27T00:01:57.248Z,20.95
2022-12-27T00:04:23.920Z,19.30
2022-12-27T00:06:50.702Z,19.65
2022-12-27T00:09:17.354Z,18.30
2022-12-27T00:11:44.167Z,18.48
2022-12-27T00:14:11.467Z,18.90
2022-12-27T00:16:38.746Z,18.17
2022-12-27T00:19:05.757Z,19.42
2022-12-27T00:21:32.551Z,17.27
2022-12-27T00:24:00.206Z,20.95
2022-12-27T00:26:29.092Z,18.45
2022-12-27T00:28:56.282Z,23.20
2022-12-27T00:31:24.069Z,18.27
2022-12-27T00:33:52.319Z,20.10
2022-12-27T00:36:21.586Z,16.23
2022-12-27T00:38:49.249Z,21.55
2022-12-27T00:41:16.784Z,19.95
2022-12-27T00:43:43.953Z,23.23
2022-12-27T00:46:10.959Z,21.35
2022-12-27T00:48:37.828Z,18.58
2022-12-27T00:51:12.493Z,17.75
2022-12-27T00:53:39.597Z,18.02
2022-12-27T00:56:11.550Z,19.77
2022-12-27T00:58:40.871Z,17.77
2022-12-27T01:01:10.125Z,22.80
2022-12-27T01:03:36.940Z,20.20
2022-12-27T01:06:10.628Z,15.93
2022-12-27T01:08:37.751Z,22.02
2022-12-27T01:11:05.162Z,21.92
2022-12-27T01:13:32.175Z,19.95
2022-12-27T01:15:58.846Z,18.67
2022-12-27T01:18:25.612Z,24.10
2022-12-27T01:20:52.279Z,17.23
2022-12-27T01:23:19.006Z,21.70
2022-12-27T01:25:45.815Z,19.98
2022-12-27T01:28:12.465Z,21.80
2022-12-27T01:30:39.108Z,21.83
2022-12-27T01:33:05.752Z,22.65
2022-12-27T01:35:32.494Z,20.48
2022-12-27T01:37:59.161Z,18.58
2022-12-27T01:40:26.009Z,20.85
2022-12-27T01:42:52.666Z,21.10
2022-12-27T01:45:23.816Z,21.55
2022-12-27T01:47:55.968Z,18.77
2022-12-27T01:50:22.587Z,20.20
2022-12-27T01:52:57.198Z,22.30
2022-12-27T01:55:49.589Z,21.25
2022-12-27T01:58:25.903Z,21.33
2022-12-27T02:00:53.149Z,21.60
2022-12-27T02:03:30.066Z,21.17
2022-12-27T02:05:58.446Z,22.88
2022-12-27T02:08:55.908Z,21.35
2022-12-27T02:11:45.628Z,24.75
2022-12-27T02:14:12.868Z,23.45
2022-12-27T02:16:39.563Z,22.90
2022-12-27T02:19:35.104Z,24.90
2022-12-27T02:22:14.628Z,17.00
2022-12-27T02:24:53.032Z,23.05
2022-12-27T02:27:38.170Z,23.30
2022-12-27T02:30:06.957Z,18.92
2022-12-27T02:33:02.913Z,22.27
2022-12-27T02:36:04.010Z,20.08
2022-12-27T02:38:40.073Z,23.10
2022-12-27T02:41:27.115Z,21.00
2022-12-27T02:44:13.448Z,22.05
2022-12-27T02:46:59.267Z,18.40
2022-12-27T02:52:52.730Z,23.38
2022-12-27T02:56:08.225Z,21.75
2022-12-27T02:59:04.762Z,23.23
2022-12-27T03:02:14.890Z,27.50
2022-12-27T03:04:41.547Z,21.33
2022-12-27T03:07:11.380Z,24.60
2022-12-27T03:10:21.852Z,23.83
2022-12-27T03:13:27.947Z,21.15
2022-12-27T03:16:15.968Z,27.38
2022-12-27T03:18:57.608Z,26.02
2022-12-27T03:21:48.251Z,22.95
2022-12-27T03:24:36.387Z,29.45
2022-12-27T03:27:09.801Z,24.10
2022-12-27T03:29:55.138Z,24.13
2022-12-27T03:32:41.248Z,24.08
2022-12-27T03:35:16.377Z,24.98
2022-12-27T03:38:05.769Z,28.73
2022-12-27T03:41:11.580Z,30.30
2022-12-27T03:43:39.082Z,24.87
2022-12-27T03:46:34.265Z,26.10
2022-12-27T03:49:26.062Z,21.33
2022-12-27T03:52:13.061Z,26.02
2022-12-27T03:54:41.488Z,34.83
2022-12-27T03:57:14.432Z,30.40
2022-12-27T03:59:41.252Z,33.53
2022-12-27T04:02:08.594Z,30.35
2022-12-27T04:04:35.891Z,31.92
2022-12-27T04:07:03.143Z,31.73
2022-12-27T04:09:48.228Z,26.95
2022-12-27T04:12:33.754Z,25.10
2022-12-27T04:15:19.069Z,30.40
2022-12-27T04:18:04.514Z,28.42
2022-12-27T04:20:50.225Z,27.70
2022-12-27T04:23:35.896Z,34.90
2022-12-27T04:26:21.173Z,28.33
2022-12-27T04:29:06.397Z,30.13
2022-12-27T04:31:51.434Z,35.00
2022-12-27T04:34:36.771Z,30.02
2022-12-27T04:37:03.610Z,28.70
2022-12-27T04:39:30.191Z,26.63
2022-12-27T04:42:15.383Z,31.90
2022-12-27T04:45:00.598Z,31.45
2022-12-27T04:47:45.896Z,25.42
2022-12-27T04:50:45.298Z,27.48
2022-12-27T04:53:39.238Z,27.63
2022-12-27T04:56:07.067Z,30.20
2022-12-27T04:58:34.233Z,30.63
2022-12-27T05:01:21.516Z,31.77
2022-12-27T05:03:49.538Z,34.88
2022-12-27T05:06:17.261Z,27.52
2022-12-27T05:09:02.467Z,32.83
2022-12-27T05:11:48.071Z,35.08
2022-12-27T05:14:16.127Z,32.88
2022-12-27T05:16:44.275Z,36.17
2022-12-27T05:19:12.593Z,43.25
2022-12-27T05:21:40.566Z,46.03
2022-12-27T05:24:26.346Z,42.50
2022-12-27T05:29:22.362Z,44.08
2022-12-27T05:31:49.105Z,49.05
2022-12-27T05:34:15.914Z,61.25
2022-12-27T05:36:42.754Z,49.30
2022-12-27T05:39:09.514Z,51.45
2022-12-27T05:41:36.196Z,55.40
2022-12-27T05:44:07.182Z,65.50
2022-12-27T05:46:34.776Z,57.97
2022-12-27T05:49:01.720Z,93.30
2022-12-27T05:51:28.452Z,58.22
2022-12-27T05:53:55.126Z,57.22
2022-12-27T05:56:22.380Z,89.95
2022-12-27T05:58:49.141Z,131.35
2022-12-27T06:01:17.659Z,100.57
2022-12-27T06:03:44.820Z,77.80
2022-12-27T06:06:11.797Z,97.82
2022-12-27T06:08:38.982Z,67.97
2022-12-27T06:11:09.772Z,169.55
2022-12-27T06:13:37.415Z,267.70
2022-12-27T06:16:06.228Z,265.60
2022-12-27T06:18:34.339Z,106.30
2022-12-27T06:21:03.020Z,73.93
2022-12-27T06:23:29.668Z,80.85
2022-12-27T06:25:56.550Z,97.38
2022-12-27T06:28:23.208Z,394.60
2022-12-27T06:30:50.913Z,136.70
2022-12-27T06:33:17.737Z,131.77
2022-12-27T06:35:44.947Z,203.63
2022-12-27T06:38:11.607Z,278.73
2022-12-27T06:40:38.401Z,305.80
2022-12-27T06:43:05.089Z,319.88
2022-12-27T06:45:31.902Z,204.15
2022-12-27T06:47:58.713Z,188.90
2022-12-27T06:50:25.967Z,244.57
2022-12-27T06:52:53.150Z,287.33
2022-12-27T06:55:36.431Z,444.63
2022-12-27T06:58:03.443Z,297.85
2022-12-27T07:00:30.594Z,476.60
2022-12-27T07:02:57.474Z,171.85
2022-12-27T07:05:24.350Z,299.80
2022-12-27T07:07:54.101Z,292.65
2022-12-27T07:10:21.341Z,354.83
2022-12-27T07:12:48.165Z,273.58
2022-12-27T07:15:15.200Z,378.10
2022-12-27T07:17:41.898Z,327.02
2022-12-27T07:20:09.484Z,215.07
2022-12-27T07:22:36.253Z,233.85
2022-12-27T07:25:03.111Z,128.50
2022-12-27T07:27:29.863Z,386.83
2022-12-27T07:29:56.604Z,257.10
2022-12-27T07:32:23.627Z,493.45
2022-12-27T07:34:50.320Z,478.55
2022-12-27T07:37:18.268Z,335.55
2022-12-27T07:39:45.175Z,178.82
2022-12-27T07:42:11.901Z,271.63
2022-12-27T07:44:38.982Z,441.40
2022-12-27T07:47:05.764Z,411.98
2022-12-27T07:49:32.606Z,180.02
2022-12-27T07:51:59.370Z,225.25
2022-12-27T07:54:26.167Z,244.50
2022-12-27T07:56:52.962Z,187.15
2022-12-27T07:59:19.917Z,280.75
2022-12-27T08:02:05.029Z,221.88
2022-12-27T08:04:34.022Z,398.98
2022-12-27T08:07:08.501Z,152.38
2022-12-27T08:09:38.486Z,273.07
2022-12-27T08:12:05.914Z,377.10
2022-12-27T08:14:32.568Z,191.43
2022-12-27T08:17:04.999Z,292.02
2022-12-27T08:19:31.766Z,499.23
2022-12-27T08:21:58.437Z,380.52
2022-12-27T08:24:25.362Z,198.88
2022-12-27T08:26:52.042Z,270.63
2022-12-27T08:29:18.820Z,346.38
2022-12-27T08:31:45.602Z,568.13
2022-12-27T08:34:12.318Z,278.33
2022-12-27T08:36:55.236Z,128.15
2022-12-27T08:39:22.640Z,113.93
2022-12-27T08:41:49.363Z,220.23
2022-12-27T08:44:16.134Z,144.02
2022-12-27T08:46:43.055Z,106.53
2022-12-27T08:49:09.824Z,175.20
2022-12-27T08:51:41.016Z,207.75
2022-12-27T08:54:10.105Z,161.90
2022-12-27T08:56:36.972Z,108.95
2022-12-27T08:59:03.822Z,174.15
2022-12-27T09:01:30.707Z,112.30
2022-12-27T09:03:57.490Z,137.75
2022-12-27T09:06:25.039Z,129.50
2022-12-27T09:08:52.795Z,135.30
2022-12-27T09:11:28.572Z,148.07
2022-12-27T09:13:55.524Z,275.35
2022-12-27T09:16:24.653Z,127.75
2022-12-27T09:18:53.926Z,129.10
2022-12-27T09:21:22.058Z,150.05
2022-12-27T09:23:49.518Z,149.07
2022-12-27T09:26:21.684Z,134.93
2022-12-27T09:28:49.161Z,151.63
2022-12-27T09:31:17.116Z,142.30
2022-12-27T09:33:44.104Z,119.35
2022-12-27T09:36:18.448Z,123.55
2022-12-27T09:38:45.801Z,112.65
2022-12-27T09:42:44.421Z,139.30
2022-12-27T09:44:43.969Z,299.20
2022-12-27T09:47:11.596Z,209.65
2022-12-27T09:50:10.929Z,121.18
2022-12-27T09:52:43.929Z,113.95
2022-12-27T09:55:23.501Z,95.63
2022-12-27T09:57:51.197Z,121.88
2022-12-27T10:00:30.984Z,132.25
2022-12-27T10:03:06.281Z,218.77
2022-12-27T10:05:35.714Z,115.20
2022-12-27T10:08:08.476Z,123.00
2022-12-27T10:10:42.943Z,146.55
2022-12-27T10:13:30.893Z,202.90
2022-12-27T10:16:29.354Z,118.72
2022-12-27T10:19:47.507Z,84.03
2022-12-27T10:22:33.903Z,100.13
2022-12-27T10:25:03.592Z,128.95
2022-12-27T10:27:30.795Z,98.57
2022-12-27T10:30:01.769Z,107.70
2022-12-27T10:32:28.599Z,143.07
2022-12-27T10:34:57.846Z,114.32
2022-12-27T10:37:24.721Z,114.75
2022-12-27T10:39:51.548Z,116.13
2022-12-27T10:42:42.040Z,132.77
2022-12-27T10:45:27.159Z,132.60
2022-12-27T10:47:56.410Z,118.82
2022-12-27T10:50:26.151Z,95.88
2022-12-27T10:52:57.486Z,96.03
2022-12-27T10:55:38.533Z,97.20
2022-12-27T10:58:51.550Z,100.80
2022-12-27T11:01:25.975Z,95.47
2022-12-27T11:04:21.854Z,88.50
2022-12-27T11:07:10.271Z,90.40
2022-12-27T11:09:50.334Z,87.53
2022-12-27T11:12:26.207Z,130.52
2022-12-27T11:15:03.863Z,125.03
2022-12-27T11:17:41.624Z,116.88
2022-12-27T11:20:20.582Z,103.03
2022-12-27T11:23:02.447Z,105.05
2022-12-27T11:25:30.396Z,190.85
2022-12-27T11:28:21.983Z,125.47
2022-12-27T11:31:00.735Z,276.50
2022-12-27T11:33:35.114Z,408.20
2022-12-27T11:36:02.134Z,289.40
2022-12-27T11:38:31.188Z,151.45
2022-12-27T11:41:34.852Z,311.05
2022-12-27T11:44:22.719Z,121.97
2022-12-27T11:46:58.772Z,132.68
2022-12-27T11:49:46.644Z,253.43
2022-12-27T11:52:32.759Z,380.40
2022-12-27T11:55:18.162Z,199.18
2022-12-27T11:57:44.825Z,250.82
2022-12-27T12:00:24.972Z,172.15
2022-12-27T12:03:19.725Z,218.27
2022-12-27T12:06:07.736Z,189.88
2022-12-27T12:08:53.614Z,145.15
2022-12-27T12:11:29.494Z,307.60
2022-12-27T12:14:20.846Z,529.85
2022-12-27T12:16:56.523Z,139.57
2022-12-27T12:19:36.459Z,251.90
2022-12-27T12:22:25.036Z,221.75
2022-12-27T12:25:09.760Z,150.38
2022-12-27T12:28:30.386Z,219.02
2022-12-27T12:31:22.367Z,153.68
2022-12-27T12:34:11.259Z,131.27
2022-12-27T12:36:56.025Z,111.15
2022-12-27T12:39:31.939Z,107.22
2022-12-27T12:42:15.279Z,104.35
2022-12-27T12:44:45.093Z,103.65
2022-12-27T12:47:25.596Z,99.32
2022-12-27T12:50:39.940Z,97.00
2022-12-27T12:53:34.282Z,102.85
2022-12-27T12:56:35.038Z,106.25
2022-12-27T12:59:29.674Z,120.13
2022-12-27T13:02:24.313Z,116.93
2022-12-27T13:05:09.083Z,120.18
2022-12-27T13:08:02.379Z,92.05
2022-12-27T13:11:00.193Z,86.07
2022-12-27T13:13:27.025Z,88.32
2022-12-27T13:16:24.618Z,72.03
2022-12-27T13:19:25.447Z,87.28
2022-12-27T13:22:01.299Z,80.50
2022-12-27T13:24:34.246Z,90.68
2022-12-27T13:27:28.359Z,95.07
2022-12-27T13:30:11.654Z,87.57
2022-12-27T13:33:00.438Z,101.60
2022-12-27T13:35:46.127Z,78.65
2022-12-27T13:38:22.001Z,79.68
2022-12-27T13:41:16.736Z,62.25
2022-12-27T13:43:51.797Z,64.78
2022-12-27T13:46:47.879Z,62.60
2022-12-27T13:49:22.706Z,73.82
2022-12-27T13:51:53.275Z,64.38
2022-12-27T13:54:41.687Z,71.80
2022-12-27T13:57:45.825Z,58.20
2022-12-27T14:00:18.811Z,62.40
2022-12-27T14:03:13.093Z,49.03
2022-12-27T14:05:57.825Z,53.03
2022-12-27T14:09:06.593Z,62.67
2022-12-27T14:11:59.079Z,64.55
2022-12-27T14:14:27.010Z,51.38
2022-12-27T14:17:23.110Z,56.88
2022-12-27T14:22:41.296Z,50.30
2022-12-27T14:25:13.944Z,51.42
2022-12-27T14:27:59.252Z,55.45
2022-12-27T14:30:47.675Z,31.42
2022-12-27T14:33:26.478Z,44.00
2022-12-27T14:36:11.345Z,43.15
2022-12-27T14:38:50.046Z,35.97
2022-12-27T14:41:50.947Z,37.05
2022-12-27T14:44:41.784Z,33.92
2022-12-27T14:47:35.468Z,26.60
2022-12-27T14:50:25.110Z,19.15
2022-12-27T14:53:08.753Z,24.88
2022-12-27T14:56:26.195Z,23.92
2022-12-27T14:59:15.528Z,18.05
2022-12-27T15:02:08.546Z,12.20
2022-12-27T15:04:54.487Z,14.45
2022-12-27T15:07:49.155Z,11.35
2022-12-27T15:11:03.083Z,13.13
2022-12-27T15:13:57.366Z,12.98
2022-12-27T15:16:49.162Z,8.48
2022-12-27T15:19:27.967Z,6.30
2022-12-27T15:22:07.129Z,6.75
2022-12-27T15:24:39.780Z,5.70
2022-12-27T15:27:25.803Z,6.68
2022-12-27T15:30:11.053Z,4.20
2022-12-27T15:33:22.492Z,6.68
2022-12-27T15:36:00.441Z,6.47
2022-12-27T15:38:27.057Z,5.30
2022-12-27T15:41:08.985Z,4.63
2022-12-27T15:43:35.900Z,3.90
2022-12-27T15:46:36.749Z,4.68
2022-12-27T15:49:26.232Z,4.10
2022-12-27T15:52:30.408Z,3.03
2022-12-27T15:55:19.207Z,2.45
2022-12-27T15:57:45.820Z,2.65
2022-12-27T16:00:17.089Z,2.58
2022-12-27T16:02:43.911Z,1.70
2022-12-27T16:05:44.291Z,4.03
2022-12-27T16:08:11.222Z,2.92
2022-12-27T16:10:40.686Z,4.03
2022-12-27T16:13:13.166Z,3.38
2022-12-27T16:15:49.664Z,3.15
2022-12-27T16:18:19.237Z,1.67
2022-12-27T16:20:54.839Z,2.47
2022-12-27T16:23:27.353Z,2.05
2022-12-27T16:26:21.485Z,2.58
2022-12-27T16:29:14.515Z,2.05
2022-12-27T16:31:54.293Z,4.43
2022-12-27T16:34:24.579Z,1.70
2022-12-27T16:36:53.355Z,3.28
2022-12-27T16:39:23.219Z,2.50
2022-12-27T16:41:50.100Z,3.60
2022-12-27T16:44:25.884Z,3.88
2022-12-27T16:47:02.335Z,1.88
2022-12-27T16:49:57.175Z,3.72
2022-12-27T16:52:47.886Z,3.08
2022-12-27T16:55:56.848Z,2.35
2022-12-27T16:58:29.346Z,2.55
2022-12-27T17:00:58.937Z,2.17
2022-12-27T17:03:31.879Z,2.05
2022-12-27T17:09:09.844Z,1.80
2022-12-27T17:11:37.256Z,2.63
2022-12-27T17:14:10.375Z,2.95
2022-12-27T17:16:48.287Z,4.10
2022-12-27T17:19:21.170Z,3.60
2022-12-27T17:21:48.570Z,2.97
2022-12-27T17:24:20.840Z,3.10
2022-12-27T17:27:21.556Z,2.92
2022-12-27T17:30:11.283Z,2.03
2022-12-27T17:32:44.190Z,5.18
2022-12-27T17:35:41.684Z,4.07
2022-12-27T17:38:26.840Z,4.63
2022-12-27T17:41:15.853Z,2.90
2022-12-27T17:44:19.412Z,3.22
2022-12-27T17:47:01.136Z,6.18
2022-12-27T17:49:30.419Z,4.90
2022-12-27T17:52:16.385Z,6.30
2022-12-27T17:55:01.709Z,5.20
2022-12-27T17:57:49.964Z,8.02
2022-12-27T18:00:25.120Z,5.72
2022-12-27T18:02:53.746Z,2.95
2022-12-27T18:05:27.383Z,4.65
2022-12-27T18:08:02.978Z,4.78
2022-12-27T18:10:30.997Z,8.68
2022-12-27T18:13:00.158Z,4.55
2022-12-27T18:15:29.077Z,8.95
2022-12-27T18:17:58.696Z,5.25
2022-12-27T18:20:39.040Z,9.15
2022-12-27T18:23:06.280Z,14.93
2022-12-27T18:25:41.064Z,6.40
2022-12-27T18:28:33.674Z,10.73
2022-12-27T18:31:19.568Z,8.63
2022-12-27T18:33:57.581Z,7.13
2022-12-27T18:36:30.410Z,8.48
2022-12-27T18:39:21.698Z,7.25
2022-12-27T18:41:50.477Z,7.47
2022-12-27T18:44:27.675Z,8.73
2022-12-27T18:46:57.724Z,4.95
2022-12-27T18:49:31.222Z,8.90
2022-12-27T18:51:58.282Z,5.70
2022-12-27T18:54:27.757Z,8.45
2022-12-27T18:56:55.647Z,9.60
2022-12-27T18:59:26.489Z,6.00
2022-12-27T19:01:54.620Z,9.13
2022-12-27T19:04:26.584Z,10.30
2022-12-27T19:07:05.975Z,13.05
2022-12-27T19:09:56.030Z,8.57
2022-12-27T19:12:35.374Z,11.77
2022-12-27T19:15:02.648Z,11.43
2022-12-27T19:17:31.216Z,6.07
2022-12-27T19:20:02.467Z,10.68
2022-12-27T19:22:48.074Z,8.98
2022-12-27T19:25:32.257Z,7.45
2022-12-27T19:28:12.079Z,5.55
2022-12-27T19:30:38.725Z,5.07
2022-12-27T19:33:12.491Z,8.27
2022-12-27T19:35:40.651Z,8.43
2022-12-27T19:38:07.348Z,6.28
2022-12-27T19:40:34.038Z,4.95
2022-12-27T19:43:00.657Z,8.05
2022-12-27T19:45:28.836Z,7.30
2022-12-27T19:47:55.532Z,12.48
2022-12-27T19:50:22.217Z,6.35
2022-12-27T19:52:50.807Z,5.47
2022-12-27T19:55:21.834Z,8.60
2022-12-27T19:57:55.944Z,8.40
2022-12-27T20:00:24.356Z,4.97
2022-12-27T20:02:51.808Z,9.95
2022-12-27T20:05:18.512Z,8.02
2022-12-27T20:08:06.487Z,5.47
2022-12-27T20:10:33.255Z,8.23
2022-12-27T20:13:01.097Z,5.60
2022-12-27T20:15:29.127Z,8.75
2022-12-27T20:17:55.763Z,7.07
2022-12-27T20:20:22.547Z,5.55
2022-12-27T20:22:49.133Z,7.53
2022-12-27T20:25:15.857Z,7.85
2022-12-27T20:27:44.662Z,6.22
2022-12-27T20:30:12.036Z,9.80
2022-12-27T20:32:38.941Z,7.80
2022-12-27T20:35:06.240Z,12.93
2022-12-27T20:37:33.253Z,9.15
2022-12-27T20:40:00.189Z,7.50
2022-12-27T20:42:29.853Z,14.98
2022-12-27T20:44:56.735Z,8.05
2022-12-27T20:47:24.839Z,9.63
2022-12-27T20:49:52.116Z,10.02
2022-12-27T20:52:18.829Z,4.57
2022-12-27T20:54:45.479Z,7.63
2022-12-27T20:57:12.357Z,12.63
2022-12-27T20:59:39.065Z,7.95
2022-12-27T21:02:05.922Z,7.20
2022-12-27T21:04:33.223Z,8.18
2022-12-27T21:06:59.865Z,6.65
2022-12-27T21:09:26.683Z,6.75
2022-12-27T21:11:53.433Z,7.32
2022-12-27T21:14:20.216Z,8.02
2022-12-27T21:16:46.949Z,6.57
2022-12-27T21:19:13.655Z,9.20
2022-12-27T21:21:40.314Z,12.00
2022-12-27T21:24:07.964Z,10.13
2022-12-27T21:26:36.392Z,6.63
2022-12-27T21:29:05.089Z,8.77
2022-12-27T21:31:32.433Z,6.97
2022-12-27T21:34:01.983Z,8.75
2022-12-27T21:36:32.211Z,7.40
2022-12-27T21:38:59.178Z,4.82
2022-12-27T21:41:29.390Z,6.45
2022-12-27T21:43:56.103Z,5.40
2022-12-27T21:46:25.285Z,7.03
2022-12-27T21:49:02.992Z,6.45
2022-12-27T21:51:30.779Z,16.83
2022-12-27T21:53:57.822Z,11.20
2022-12-27T21:56:24.966Z,12.38
2022-12-27T21:58:55.487Z,6.25
2022-12-27T22:01:27.684Z,8.48
2022-12-27T22:03:55.309Z,6.22
2022-12-27T22:06:23.039Z,6.25
2022-12-27T22:08:54.183Z,8.35
2022-12-27T22:11:22.419Z,8.40
2022-12-27T22:13:49.551Z,9.93
2022-12-27T22:16:24.914Z,7.78
2022-12-27T22:21:21.511Z,8.15
2022-12-27T22:23:50.244Z,9.30
2022-12-27T22:26:19.204Z,8.38
2022-12-27T22:28:46.214Z,9.52
2022-12-27T22:31:18.533Z,10.52
2022-12-27T22:33:45.596Z,9.95
2022-12-27T22:36:14.939Z,10.05
2022-12-27T22:38:41.899Z,7.05
2022-12-27T22:41:15.101Z,13.25
2022-12-27T22:43:43.089Z,9.13
2022-12-27T22:46:14.476Z,15.20
2022-12-27T22:48:41.516Z,6.50
2022-12-27T22:51:10.586Z,10.80
2022-12-27T22:53:37.537Z,8.57
2022-12-27T22:56:04.338Z,9.07
2022-12-27T22:58:31.845Z,7.40
2022-12-27T23:00:59.012Z,6.82
2022-12-27T23:03:25.663Z,9.20
2022-12-27T23:05:59.629Z,7.65
2022-12-27T23:08:26.567Z,9.70
2022-12-27T23:10:53.537Z,10.45
2022-12-27T23:13:22.370Z,5.28
2022-12-27T23:15:57.780Z,12.48
2022-12-27T23:18:24.709Z,12.48
2022-12-27T23:21:20.911Z,8.98
2022-12-27T23:23:38.070Z,9.77
2022-12-27T23:26:13.636Z,8.82
2022-12-27T23:28:42.188Z,8.35
2022-12-27T23:31:13.378Z,13.63
2022-12-27T23:33:41.134Z,9.50
2022-12-27T23:36:08.663Z,15.40
2022-12-27T23:38:36.599Z,12.07
2022-12-27T23:41:05.433Z,13.70
2022-12-27T23:43:51.528Z,10.43
2022-12-27T23:46:27.745Z,10.88
2022-12-27T23:48:55.564Z,5.30
2022-12-27T23:51:22.480Z,10.73
2022-12-27T23:53:49.548Z,9.35
2022-12-27T23:56:24.889Z,9.57
